sensor_id;sensor_type;location;lat;lon;timestamp;temperature;humidity
18189;DHT22;9219;50.396;8.546;2023-04-03T00:03:59;5.00;99.90
18189;DHT22;9219;50.396;8.546;2023-04-03T00:06:26;5.00;99.90
18189;DHT22;9219;50.396;8.546;2023-04-03T00:08:54;5.00;99.90
18189;DHT22;9219;50.396;8.546;2023-04-03T00:11:21;5.00;99.90
18189;DHT22;9219;50.396;8.546;2023-04-03T00:13:49;4.90;99.90
18189;DHT22;9219;50.396;8.546;2023-04-03T00:16:16;5.10;99.90
18189;DHT22;9219;50.396;8.546;2023-04-03T00:18:43;5.10;99.90
18189;DHT22;9219;50.396;8.546;2023-04-03T00:24:11;5.00;99.90
18189;DHT22;9219;50.396;8.546;2023-04-03T00:26:38;5.00;99.90
18189;DHT22;9219;50.396;8.546;2023-04-03T00:29:06;5.00;99.90
18189;DHT22;9219;50.396;8.546;2023-04-03T00:31:33;5.10;99.90
18189;DHT22;9219;50.396;8.546;2023-04-03T00:34:01;5.20;99.90
18189;DHT22;9219;50.396;8.546;2023-04-03T00:36:29;5.40;99.90
18189;DHT22;9219;50.396;8.546;2023-04-03T00:38:56;5.30;99.90
18189;DHT22;9219;50.396;8.546;2023-04-03T00:44:21;5.20;99.90
18189;DHT22;9219;50.396;8.546;2023-04-03T00:46:49;5.00;99.90
18189;DHT22;9219;50.396;8.546;2023-04-03T00:49:17;4.90;99.90
18189;DHT22;9219;50.396;8.546;2023-04-03T00:51:44;5.10;99.90
18189;DHT22;9219;50.396;8.546;2023-04-03T00:54:14;5.30;99.90
18189;DHT22;9219;50.396;8.546;2023-04-03T00:56:41;5.30;99.90
18189;DHT22;9219;50.396;8.546;2023-04-03T00:59:12;5.30;99.90
18189;DHT22;9219;50.396;8.546;2023-04-03T01:04:37;5.10;99.90
18189;DHT22;9219;50.396;8.546;2023-04-03T01:07:07;5.20;99.90
18189;DHT22;9219;50.396;8.546;2023-04-03T01:09:36;5.10;99.90
18189;DHT22;9219;50.396;8.546;2023-04-03T01:12:15;5.10;99.90
18189;DHT22;9219;50.396;8.546;2023-04-03T01:14:42;5.20;99.90
18189;DHT22;9219;50.396;8.546;2023-04-03T01:17:28;5.20;99.90
18189;DHT22;9219;50.396;8.546;2023-04-03T01:20:30;5.20;99.90
18189;DHT22;9219;50.396;8.546;2023-04-03T01:28:37;5.10;99.90
18189;DHT22;9219;50.396;8.546;2023-04-03T01:31:11;5.00;99.90
18189;DHT22;9219;50.396;8.546;2023-04-03T01:33:42;4.90;99.90
18189;DHT22;9219;50.396;8.546;2023-04-03T01:36:13;4.80;99.90
18189;DHT22;9219;50.396;8.546;2023-04-03T01:38:40;4.80;99.90
18189;DHT22;9219;50.396;8.546;2023-04-03T01:41:08;4.90;99.90
18189;DHT22;9219;50.396;8.546;2023-04-03T01:43:36;4.70;99.90
18189;DHT22;9219;50.396;8.546;2023-04-03T01:48:58;4.70;99.90
18189;DHT22;9219;50.396;8.546;2023-04-03T01:51:25;4.80;99.90
18189;DHT22;9219;50.396;8.546;2023-04-03T01:53:53;4.60;99.90
18189;DHT22;9219;50.396;8.546;2023-04-03T01:56:20;4.50;99.90
18189;DHT22;9219;50.396;8.546;2023-04-03T01:58:47;4.60;99.90
18189;DHT22;9219;50.396;8.546;2023-04-03T02:01:15;4.70;99.90
18189;DHT22;9219;50.396;8.546;2023-04-03T02:03:42;4.60;99.90
18189;DHT22;9219;50.396;8.546;2023-04-03T02:09:04;4.70;99.90
18189;DHT22;9219;50.396;8.546;2023-04-03T02:11:31;4.50;99.90
18189;DHT22;9219;50.396;8.546;2023-04-03T02:13:58;4.50;99.90
18189;DHT22;9219;50.396;8.546;2023-04-03T02:16:25;4.40;99.90
18189;DHT22;9219;50.396;8.546;2023-04-03T02:18:53;4.00;99.90
18189;DHT22;9219;50.396;8.546;2023-04-03T02:21:20;4.10;99.90
18189;DHT22;9219;50.396;8.546;2023-04-03T02:23:48;4.20;99.90
18189;DHT22;9219;50.396;8.546;2023-04-03T02:29:01;4.40;99.90
18189;DHT22;9219;50.396;8.546;2023-04-03T02:31:29;4.60;99.90
18189;DHT22;9219;50.396;8.546;2023-04-03T02:33:56;4.50;99.90
18189;DHT22;9219;50.396;8.546;2023-04-03T02:36:24;4.50;99.90
18189;DHT22;9219;50.396;8.546;2023-04-03T02:38:51;4.50;99.90
18189;DHT22;9219;50.396;8.546;2023-04-03T02:41:18;4.50;99.90
18189;DHT22;9219;50.396;8.546;2023-04-03T02:43:45;4.30;99.90
18189;DHT22;9219;50.396;8.546;2023-04-03T02:49:08;4.40;99.90
18189;DHT22;9219;50.396;8.546;2023-04-03T02:51:35;4.50;99.90
18189;DHT22;9219;50.396;8.546;2023-04-03T02:54:02;4.20;99.90
18189;DHT22;9219;50.396;8.546;2023-04-03T02:56:29;4.10;99.90
18189;DHT22;9219;50.396;8.546;2023-04-03T02:58:57;4.10;99.90
18189;DHT22;9219;50.396;8.546;2023-04-03T03:01:24;4.20;99.90
18189;DHT22;9219;50.396;8.546;2023-04-03T03:03:51;4.20;99.90
18189;DHT22;9219;50.396;8.546;2023-04-03T03:09:06;4.20;99.90
18189;DHT22;9219;50.396;8.546;2023-04-03T03:11:33;4.20;99.90
18189;DHT22;9219;50.396;8.546;2023-04-03T03:14:00;4.30;99.90
18189;DHT22;9219;50.396;8.546;2023-04-03T03:16:27;4.30;99.90
18189;DHT22;9219;50.396;8.546;2023-04-03T03:18:55;4.10;99.90
18189;DHT22;9219;50.396;8.546;2023-04-03T03:21:24;3.90;99.90
18189;DHT22;9219;50.396;8.546;2023-04-03T03:23:53;4.00;99.90
18189;DHT22;9219;50.396;8.546;2023-04-03T03:26:22;3.90;99.90
18189;DHT22;9219;50.396;8.546;2023-04-03T03:34:07;3.70;99.90
18189;DHT22;9219;50.396;8.546;2023-04-03T03:36:35;3.80;99.90
18189;DHT22;9219;50.396;8.546;2023-04-03T03:39:02;3.60;99.90
18189;DHT22;9219;50.396;8.546;2023-04-03T03:41:30;3.60;99.90
18189;DHT22;9219;50.396;8.546;2023-04-03T03:43:57;3.60;99.90
18189;DHT22;9219;50.396;8.546;2023-04-03T03:46:24;3.60;99.90
18189;DHT22;9219;50.396;8.546;2023-04-03T03:48:51;3.80;99.90
18189;DHT22;9219;50.396;8.546;2023-04-03T03:57:10;3.50;99.90
18189;DHT22;9219;50.396;8.546;2023-04-03T03:59:37;3.70;99.90
18189;DHT22;9219;50.396;8.546;2023-04-03T04:02:06;3.40;99.90
18189;DHT22;9219;50.396;8.546;2023-04-03T04:04:36;3.50;99.90
18189;DHT22;9219;50.396;8.546;2023-04-03T04:07:04;3.50;99.90
18189;DHT22;9219;50.396;8.546;2023-04-03T04:09:31;3.50;99.90
18189;DHT22;9219;50.396;8.546;2023-04-03T04:11:58;3.20;99.90
18189;DHT22;9219;50.396;8.546;2023-04-03T04:17:25;3.20;99.90
18189;DHT22;9219;50.396;8.546;2023-04-03T04:19:53;2.90;99.90
18189;DHT22;9219;50.396;8.546;2023-04-03T04:22:20;2.90;99.90
18189;DHT22;9219;50.396;8.546;2023-04-03T04:24:47;2.70;99.90
18189;DHT22;9219;50.396;8.546;2023-04-03T04:27:14;2.80;99.90
18189;DHT22;9219;50.396;8.546;2023-04-03T04:29:42;2.80;99.90
18189;DHT22;9219;50.396;8.546;2023-04-03T04:32:09;2.80;99.90
18189;DHT22;9219;50.396;8.546;2023-04-03T04:39:42;2.40;99.90
18189;DHT22;9219;50.396;8.546;2023-04-03T04:42:08;2.40;99.90
18189;DHT22;9219;50.396;8.546;2023-04-03T04:44:38;2.60;99.90
18189;DHT22;9219;50.396;8.546;2023-04-03T04:47:06;2.50;99.90
18189;DHT22;9219;50.396;8.546;2023-04-03T04:49:34;2.40;99.90
18189;DHT22;9219;50.396;8.546;2023-04-03T04:52:01;2.20;99.90
18189;DHT22;9219;50.396;8.546;2023-04-03T04:54:28;2.10;99.90
18189;DHT22;9219;50.396;8.546;2023-04-03T05:02:00;2.20;99.90
18189;DHT22;9219;50.396;8.546;2023-04-03T05:04:27;1.90;99.90
18189;DHT22;9219;50.396;8.546;2023-04-03T05:06:55;2.00;99.90
18189;DHT22;9219;50.396;8.546;2023-04-03T05:09:21;1.60;99.90
18189;DHT22;9219;50.396;8.546;2023-04-03T05:11:49;1.40;99.90
18189;DHT22;9219;50.396;8.546;2023-04-03T05:14:16;1.40;99.90
18189;DHT22;9219;50.396;8.546;2023-04-03T05:16:47;1.30;99.90
18189;DHT22;9219;50.396;8.546;2023-04-03T05:26:27;1.60;99.90
18189;DHT22;9219;50.396;8.546;2023-04-03T05:28:55;1.00;99.90
18189;DHT22;9219;50.396;8.546;2023-04-03T05:31:22;0.90;99.90
18189;DHT22;9219;50.396;8.546;2023-04-03T05:33:49;1.00;99.90
18189;DHT22;9219;50.396;8.546;2023-04-03T05:36:17;1.20;99.90
18189;DHT22;9219;50.396;8.546;2023-04-03T05:38:45;1.20;99.90
18189;DHT22;9219;50.396;8.546;2023-04-03T05:41:12;1.10;99.90
18189;DHT22;9219;50.396;8.546;2023-04-03T05:46:19;1.00;99.90
18189;DHT22;9219;50.396;8.546;2023-04-03T05:48:47;1.40;99.90
18189;DHT22;9219;50.396;8.546;2023-04-03T05:51:16;1.40;99.90
18189;DHT22;9219;50.396;8.546;2023-04-03T05:53:45;1.50;99.90
18189;DHT22;9219;50.396;8.546;2023-04-03T05:56:12;1.50;99.90
18189;DHT22;9219;50.396;8.546;2023-04-03T05:58:39;1.80;99.90
18189;DHT22;9219;50.396;8.546;2023-04-03T06:01:06;1.70;99.90
18189;DHT22;9219;50.396;8.546;2023-04-03T06:06:16;1.60;99.90
18189;DHT22;9219;50.396;8.546;2023-04-03T06:08:43;1.10;99.90
18189;DHT22;9219;50.396;8.546;2023-04-03T06:11:10;1.00;99.90
18189;DHT22;9219;50.396;8.546;2023-04-03T06:13:38;1.20;99.90
18189;DHT22;9219;50.396;8.546;2023-04-03T06:16:06;1.20;99.90
18189;DHT22;9219;50.396;8.546;2023-04-03T06:18:34;1.10;99.90
18189;DHT22;9219;50.396;8.546;2023-04-03T06:21:01;0.80;99.90
18189;DHT22;9219;50.396;8.546;2023-04-03T06:26:53;1.00;99.90
18189;DHT22;9219;50.396;8.546;2023-04-03T06:29:24;1.20;99.90
18189;DHT22;9219;50.396;8.546;2023-04-03T06:31:52;1.40;99.90
18189;DHT22;9219;50.396;8.546;2023-04-03T06:34:19;1.40;99.90
18189;DHT22;9219;50.396;8.546;2023-04-03T06:36:46;1.40;99.90
18189;DHT22;9219;50.396;8.546;2023-04-03T06:39:17;1.30;99.90
18189;DHT22;9219;50.396;8.546;2023-04-03T06:41:47;1.40;99.90
18189;DHT22;9219;50.396;8.546;2023-04-03T06:49:20;1.20;99.90
18189;DHT22;9219;50.396;8.546;2023-04-03T06:51:47;1.40;99.90
18189;DHT22;9219;50.396;8.546;2023-04-03T06:54:14;1.60;99.90
18189;DHT22;9219;50.396;8.546;2023-04-03T06:56:42;1.70;99.90
18189;DHT22;9219;50.396;8.546;2023-04-03T06:59:09;1.70;99.90
18189;DHT22;9219;50.396;8.546;2023-04-03T07:01:37;1.50;99.90
18189;DHT22;9219;50.396;8.546;2023-04-03T07:04:05;1.40;99.90
18189;DHT22;9219;50.396;8.546;2023-04-03T07:11:37;1.50;99.90
18189;DHT22;9219;50.396;8.546;2023-04-03T07:14:06;1.10;99.90
18189;DHT22;9219;50.396;8.546;2023-04-03T07:16:34;1.10;99.90
18189;DHT22;9219;50.396;8.546;2023-04-03T07:19:02;0.80;99.90
18189;DHT22;9219;50.396;8.546;2023-04-03T07:21:30;0.90;99.90
18189;DHT22;9219;50.396;8.546;2023-04-03T07:23:57;1.10;99.90
18189;DHT22;9219;50.396;8.546;2023-04-03T07:26:24;1.10;99.90
18189;DHT22;9219;50.396;8.546;2023-04-03T07:34:21;1.40;99.90
18189;DHT22;9219;50.396;8.546;2023-04-03T07:36:52;1.20;99.90
18189;DHT22;9219;50.396;8.546;2023-04-03T07:39:20;1.30;99.90
18189;DHT22;9219;50.396;8.546;2023-04-03T07:41:47;1.40;99.90
18189;DHT22;9219;50.396;8.546;2023-04-03T07:44:15;1.30;99.90
18189;DHT22;9219;50.396;8.546;2023-04-03T07:46:42;1.20;99.90
18189;DHT22;9219;50.396;8.546;2023-04-03T07:49:09;1.30;99.90
18189;DHT22;9219;50.396;8.546;2023-04-03T07:56:42;1.30;99.90
18189;DHT22;9219;50.396;8.546;2023-04-03T07:59:10;1.20;99.90
18189;DHT22;9219;50.396;8.546;2023-04-03T08:01:38;1.00;99.90
18189;DHT22;9219;50.396;8.546;2023-04-03T08:04:06;1.10;99.90
18189;DHT22;9219;50.396;8.546;2023-04-03T08:06:33;1.20;99.90
18189;DHT22;9219;50.396;8.546;2023-04-03T08:09:12;1.40;99.90
18189;DHT22;9219;50.396;8.546;2023-04-03T08:11:41;1.70;99.90
18189;DHT22;9219;50.396;8.546;2023-04-03T08:19:14;2.20;99.90
18189;DHT22;9219;50.396;8.546;2023-04-03T08:21:53;2.70;99.90
18189;DHT22;9219;50.396;8.546;2023-04-03T08:24:20;3.20;99.90
18189;DHT22;9219;50.396;8.546;2023-04-03T08:26:48;3.30;99.90
18189;DHT22;9219;50.396;8.546;2023-04-03T08:29:15;3.00;99.90
18189;DHT22;9219;50.396;8.546;2023-04-03T08:31:43;2.80;99.90
18189;DHT22;9219;50.396;8.546;2023-04-03T08:34:11;2.80;99.90
18189;DHT22;9219;50.396;8.546;2023-04-03T08:41:45;3.20;99.90
18189;DHT22;9219;50.396;8.546;2023-04-03T08:44:18;3.00;99.90
18189;DHT22;9219;50.396;8.546;2023-04-03T08:47:02;3.10;99.90
18189;DHT22;9219;50.396;8.546;2023-04-03T08:49:33;3.40;99.90
18189;DHT22;9219;50.396;8.546;2023-04-03T08:52:08;3.80;99.90
18189;DHT22;9219;50.396;8.546;2023-04-03T08:54:41;4.10;99.90
18189;DHT22;9219;50.396;8.546;2023-04-03T08:57:26;4.20;99.90
18189;DHT22;9219;50.396;8.546;2023-04-03T09:06:47;4.20;99.90
18189;DHT22;9219;50.396;8.546;2023-04-03T09:09:29;4.50;99.90
18189;DHT22;9219;50.396;8.546;2023-04-03T09:12:06;4.70;99.90
18189;DHT22;9219;50.396;8.546;2023-04-03T09:14:47;4.70;99.90
18189;DHT22;9219;50.396;8.546;2023-04-03T09:17:24;5.00;99.90
18189;DHT22;9219;50.396;8.546;2023-04-03T09:19:58;5.30;99.90
18189;DHT22;9219;50.396;8.546;2023-04-03T09:22:28;5.20;99.90
18189;DHT22;9219;50.396;8.546;2023-04-03T09:29:26;5.70;99.90
18189;DHT22;9219;50.396;8.546;2023-04-03T09:31:57;5.30;99.90
18189;DHT22;9219;50.396;8.546;2023-04-03T09:34:28;5.30;99.90
18189;DHT22;9219;50.396;8.546;2023-04-03T09:36:58;5.40;99.90
18189;DHT22;9219;50.396;8.546;2023-04-03T09:39:48;5.50;99.90
18189;DHT22;9219;50.396;8.546;2023-04-03T09:42:20;5.50;99.90
18189;DHT22;9219;50.396;8.546;2023-04-03T09:44:54;5.80;99.90
18189;DHT22;9219;50.396;8.546;2023-04-03T09:52:28;6.00;99.90
18189;DHT22;9219;50.396;8.546;2023-04-03T09:55:06;7.10;99.90
18189;DHT22;9219;50.396;8.546;2023-04-03T09:57:34;7.30;99.90
18189;DHT22;9219;50.396;8.546;2023-04-03T10:00:02;7.00;99.90
18189;DHT22;9219;50.396;8.546;2023-04-03T10:02:35;7.10;99.90
18189;DHT22;9219;50.396;8.546;2023-04-03T10:05:05;7.10;99.90
18189;DHT22;9219;50.396;8.546;2023-04-03T10:07:51;7.00;99.90
18189;DHT22;9219;50.396;8.546;2023-04-03T10:13:13;6.60;99.90
18189;DHT22;9219;50.396;8.546;2023-04-03T10:15:51;6.50;99.90
18189;DHT22;9219;50.396;8.546;2023-04-03T10:18:32;6.80;99.90
18189;DHT22;9219;50.396;8.546;2023-04-03T10:21:07;7.40;99.90
18189;DHT22;9219;50.396;8.546;2023-04-03T10:23:54;7.90;99.90
18189;DHT22;9219;50.396;8.546;2023-04-03T10:26:33;7.90;99.90
18189;DHT22;9219;50.396;8.546;2023-04-03T10:32:57;7.30;99.90
18189;DHT22;9219;50.396;8.546;2023-04-03T10:35:35;7.60;99.90
18189;DHT22;9219;50.396;8.546;2023-04-03T10:38:08;7.50;99.90
18189;DHT22;9219;50.396;8.546;2023-04-03T10:40:47;7.10;99.90
18189;DHT22;9219;50.396;8.546;2023-04-03T10:43:21;6.80;99.90
18189;DHT22;9219;50.396;8.546;2023-04-03T10:45:54;6.50;99.90
18189;DHT22;9219;50.396;8.546;2023-04-03T10:48:34;6.80;99.90
18189;DHT22;9219;50.396;8.546;2023-04-03T10:56:15;6.50;99.90
18189;DHT22;9219;50.396;8.546;2023-04-03T10:58:48;7.20;99.90
18189;DHT22;9219;50.396;8.546;2023-04-03T11:01:18;7.60;99.90
18189;DHT22;9219;50.396;8.546;2023-04-03T11:03:49;7.80;99.90
18189;DHT22;9219;50.396;8.546;2023-04-03T11:06:22;7.80;99.90
18189;DHT22;9219;50.396;8.546;2023-04-03T11:08:54;7.50;99.90
18189;DHT22;9219;50.396;8.546;2023-04-03T11:11:27;7.30;99.90
18189;DHT22;9219;50.396;8.546;2023-04-03T11:19:08;6.70;99.90
18189;DHT22;9219;50.396;8.546;2023-04-03T11:21:52;6.90;99.90
18189;DHT22;9219;50.396;8.546;2023-04-03T11:24:25;6.80;99.90
18189;DHT22;9219;50.396;8.546;2023-04-03T11:26:54;6.70;99.90
18189;DHT22;9219;50.396;8.546;2023-04-03T11:29:28;6.60;99.90
18189;DHT22;9219;50.396;8.546;2023-04-03T11:32:20;6.80;99.90
18189;DHT22;9219;50.396;8.546;2023-04-03T11:34:56;6.90;99.90
18189;DHT22;9219;50.396;8.546;2023-04-03T11:42:25;7.20;99.90
18189;DHT22;9219;50.396;8.546;2023-04-03T11:45:15;7.60;99.90
18189;DHT22;9219;50.396;8.546;2023-04-03T11:47:45;7.50;99.90
18189;DHT22;9219;50.396;8.546;2023-04-03T11:50:39;7.80;99.90
18189;DHT22;9219;50.396;8.546;2023-04-03T11:53:27;7.80;99.90
18189;DHT22;9219;50.396;8.546;2023-04-03T11:55:59;7.10;99.90
18189;DHT22;9219;50.396;8.546;2023-04-03T12:01:11;6.60;99.90
18189;DHT22;9219;50.396;8.546;2023-04-03T12:04:10;7.40;99.90
18189;DHT22;9219;50.396;8.546;2023-04-03T12:09:58;6.90;99.90
18189;DHT22;9219;50.396;8.546;2023-04-03T12:12:34;7.00;99.90
18189;DHT22;9219;50.396;8.546;2023-04-03T12:15:23;7.40;99.90
18189;DHT22;9219;50.396;8.546;2023-04-03T12:25:51;7.60;99.90
18189;DHT22;9219;50.396;8.546;2023-04-03T12:28:26;7.70;99.90
18189;DHT22;9219;50.396;8.546;2023-04-03T12:30:54;8.10;99.90
18189;DHT22;9219;50.396;8.546;2023-04-03T12:33:30;8.00;99.90
18189;DHT22;9219;50.396;8.546;2023-04-03T12:36:10;7.50;99.90
18189;DHT22;9219;50.396;8.546;2023-04-03T12:39:01;8.10;99.90
18189;DHT22;9219;50.396;8.546;2023-04-03T12:41:37;8.00;99.90
18189;DHT22;9219;50.396;8.546;2023-04-03T12:49:35;8.10;99.90
18189;DHT22;9219;50.396;8.546;2023-04-03T12:52:04;8.20;99.90
18189;DHT22;9219;50.396;8.546;2023-04-03T12:54:37;7.70;99.90
18189;DHT22;9219;50.396;8.546;2023-04-03T12:57:10;7.30;99.90
18189;DHT22;9219;50.396;8.546;2023-04-03T12:59:38;7.30;99.90
18189;DHT22;9219;50.396;8.546;2023-04-03T13:02:25;7.40;99.90
18189;DHT22;9219;50.396;8.546;2023-04-03T13:04:56;8.30;99.90
18189;DHT22;9219;50.396;8.546;2023-04-03T13:12:25;8.00;99.90
18189;DHT22;9219;50.396;8.546;2023-04-03T13:14:53;8.50;99.90
18189;DHT22;9219;50.396;8.546;2023-04-03T13:17:22;8.70;99.90
18189;DHT22;9219;50.396;8.546;2023-04-03T13:19:50;8.60;99.90
18189;DHT22;9219;50.396;8.546;2023-04-03T13:22:26;8.20;99.90
18189;DHT22;9219;50.396;8.546;2023-04-03T13:24:58;7.90;99.90
18189;DHT22;9219;50.396;8.546;2023-04-03T13:27:30;7.60;99.90
18189;DHT22;9219;50.396;8.546;2023-04-03T13:35:02;8.40;99.90
18189;DHT22;9219;50.396;8.546;2023-04-03T13:37:54;8.60;99.90
18189;DHT22;9219;50.396;8.546;2023-04-03T13:40:22;8.70;99.90
18189;DHT22;9219;50.396;8.546;2023-04-03T13:43:06;8.90;99.90
18189;DHT22;9219;50.396;8.546;2023-04-03T13:45:55;8.80;99.90
18189;DHT22;9219;50.396;8.546;2023-04-03T13:48:24;8.90;99.90
18189;DHT22;9219;50.396;8.546;2023-04-03T13:51:16;9.50;99.90
18189;DHT22;9219;50.396;8.546;2023-04-03T13:59:18;8.60;99.90
18189;DHT22;9219;50.396;8.546;2023-04-03T14:01:51;9.00;99.90
18189;DHT22;9219;50.396;8.546;2023-04-03T14:04:20;8.80;99.90
18189;DHT22;9219;50.396;8.546;2023-04-03T14:06:49;8.80;99.90
18189;DHT22;9219;50.396;8.546;2023-04-03T14:09:20;8.30;99.90
18189;DHT22;9219;50.396;8.546;2023-04-03T14:11:49;7.60;99.90
18189;DHT22;9219;50.396;8.546;2023-04-03T14:14:22;7.70;99.90
18189;DHT22;9219;50.396;8.546;2023-04-03T14:21:55;7.80;99.90
18189;DHT22;9219;50.396;8.546;2023-04-03T14:24:23;8.70;99.90
18189;DHT22;9219;50.396;8.546;2023-04-03T14:26:52;8.60;99.90
18189;DHT22;9219;50.396;8.546;2023-04-03T14:29:22;8.70;99.90
18189;DHT22;9219;50.396;8.546;2023-04-03T14:31:50;8.40;99.90
18189;DHT22;9219;50.396;8.546;2023-04-03T14:34:33;8.40;99.90
18189;DHT22;9219;50.396;8.546;2023-04-03T14:37:01;7.90;99.90
18189;DHT22;9219;50.396;8.546;2023-04-03T14:44:34;8.40;99.90
18189;DHT22;9219;50.396;8.546;2023-04-03T14:47:02;8.50;99.90
18189;DHT22;9219;50.396;8.546;2023-04-03T14:49:29;9.00;99.90
18189;DHT22;9219;50.396;8.546;2023-04-03T14:51:58;9.30;99.90
18189;DHT22;9219;50.396;8.546;2023-04-03T14:54:26;9.10;99.90
18189;DHT22;9219;50.396;8.546;2023-04-03T14:56:57;9.40;99.90
18189;DHT22;9219;50.396;8.546;2023-04-03T14:59:25;9.50;99.90
18189;DHT22;9219;50.396;8.546;2023-04-03T15:06:59;8.50;99.90
18189;DHT22;9219;50.396;8.546;2023-04-03T15:09:27;8.70;99.90
18189;DHT22;9219;50.396;8.546;2023-04-03T15:11:55;8.70;99.90
18189;DHT22;9219;50.396;8.546;2023-04-03T15:14:23;8.40;99.90
18189;DHT22;9219;50.396;8.546;2023-04-03T15:17:13;8.40;99.90
18189;DHT22;9219;50.396;8.546;2023-04-03T15:19:43;8.60;99.90
18189;DHT22;9219;50.396;8.546;2023-04-03T15:22:15;8.90;99.90
18189;DHT22;9219;50.396;8.546;2023-04-03T15:29:47;8.90;99.90
18189;DHT22;9219;50.396;8.546;2023-04-03T15:32:15;9.10;99.90
18189;DHT22;9219;50.396;8.546;2023-04-03T15:34:42;8.90;99.90
18189;DHT22;9219;50.396;8.546;2023-04-03T15:37:10;8.80;99.90
18189;DHT22;9219;50.396;8.546;2023-04-03T15:39:37;8.90;99.90
18189;DHT22;9219;50.396;8.546;2023-04-03T15:42:05;8.60;99.90
18189;DHT22;9219;50.396;8.546;2023-04-03T15:44:33;8.10;99.90
18189;DHT22;9219;50.396;8.546;2023-04-03T15:52:09;8.20;99.90
18189;DHT22;9219;50.396;8.546;2023-04-03T15:54:40;7.90;99.90
18189;DHT22;9219;50.396;8.546;2023-04-03T15:57:07;8.00;99.90
18189;DHT22;9219;50.396;8.546;2023-04-03T15:59:37;8.10;99.90
18189;DHT22;9219;50.396;8.546;2023-04-03T16:02:06;8.10;99.90
18189;DHT22;9219;50.396;8.546;2023-04-03T16:04:35;8.30;99.90
18189;DHT22;9219;50.396;8.546;2023-04-03T16:07:03;7.90;99.90
18189;DHT22;9219;50.396;8.546;2023-04-03T16:12:10;8.00;99.90
18189;DHT22;9219;50.396;8.546;2023-04-03T16:14:38;7.80;99.90
18189;DHT22;9219;50.396;8.546;2023-04-03T16:17:05;7.90;99.90
18189;DHT22;9219;50.396;8.546;2023-04-03T16:19:33;7.80;99.90
18189;DHT22;9219;50.396;8.546;2023-04-03T16:22:01;7.80;99.90
18189;DHT22;9219;50.396;8.546;2023-04-03T16:24:29;8.00;99.90
18189;DHT22;9219;50.396;8.546;2023-04-03T16:26:56;7.80;99.90
18189;DHT22;9219;50.396;8.546;2023-04-03T16:34:28;8.00;99.90
18189;DHT22;9219;50.396;8.546;2023-04-03T16:36:56;7.80;99.90
18189;DHT22;9219;50.396;8.546;2023-04-03T16:39:24;7.90;99.90
18189;DHT22;9219;50.396;8.546;2023-04-03T16:41:52;8.00;99.90
18189;DHT22;9219;50.396;8.546;2023-04-03T16:44:19;7.80;99.90
18189;DHT22;9219;50.396;8.546;2023-04-03T16:46:46;7.80;99.90
18189;DHT22;9219;50.396;8.546;2023-04-03T16:49:14;7.60;99.90
18189;DHT22;9219;50.396;8.546;2023-04-03T16:54:37;7.60;99.90
18189;DHT22;9219;50.396;8.546;2023-04-03T16:57:05;7.50;99.90
18189;DHT22;9219;50.396;8.546;2023-04-03T16:59:32;7.50;99.90
18189;DHT22;9219;50.396;8.546;2023-04-03T17:01:59;7.50;99.90
18189;DHT22;9219;50.396;8.546;2023-04-03T17:04:27;7.30;99.90
18189;DHT22;9219;50.396;8.546;2023-04-03T17:06:54;7.10;99.90
18189;DHT22;9219;50.396;8.546;2023-04-03T17:09:22;7.20;99.90
18189;DHT22;9219;50.396;8.546;2023-04-03T17:16:53;7.00;99.90
18189;DHT22;9219;50.396;8.546;2023-04-03T17:19:21;7.00;99.90
18189;DHT22;9219;50.396;8.546;2023-04-03T17:21:49;7.10;99.90
18189;DHT22;9219;50.396;8.546;2023-04-03T17:24:18;7.30;99.90
18189;DHT22;9219;50.396;8.546;2023-04-03T17:26:45;7.10;99.90
18189;DHT22;9219;50.396;8.546;2023-04-03T17:29:13;7.20;99.90
18189;DHT22;9219;50.396;8.546;2023-04-03T17:31:40;7.00;99.90
18189;DHT22;9219;50.396;8.546;2023-04-03T17:39:07;6.90;99.90
18189;DHT22;9219;50.396;8.546;2023-04-03T17:41:35;7.00;99.90
18189;DHT22;9219;50.396;8.546;2023-04-03T17:44:03;6.80;99.90
18189;DHT22;9219;50.396;8.546;2023-04-03T17:46:30;6.80;99.90
18189;DHT22;9219;50.396;8.546;2023-04-03T17:49:01;6.70;99.90
18189;DHT22;9219;50.396;8.546;2023-04-03T17:51:29;6.70;99.90
18189;DHT22;9219;50.396;8.546;2023-04-03T17:53:57;6.80;99.90
18189;DHT22;9219;50.396;8.546;2023-04-03T17:59:20;6.70;99.90
18189;DHT22;9219;50.396;8.546;2023-04-03T18:01:48;6.50;99.90
18189;DHT22;9219;50.396;8.546;2023-04-03T18:04:17;6.50;99.90
18189;DHT22;9219;50.396;8.546;2023-04-03T18:06:46;6.50;99.90
18189;DHT22;9219;50.396;8.546;2023-04-03T18:09:16;6.70;99.90
18189;DHT22;9219;50.396;8.546;2023-04-03T18:11:46;6.70;99.90
18189;DHT22;9219;50.396;8.546;2023-04-03T18:14:16;6.70;99.90
18189;DHT22;9219;50.396;8.546;2023-04-03T18:21:50;5.80;99.90
18189;DHT22;9219;50.396;8.546;2023-04-03T18:24:18;5.70;99.90
18189;DHT22;9219;50.396;8.546;2023-04-03T18:26:48;5.50;99.90
18189;DHT22;9219;50.396;8.546;2023-04-03T18:29:16;5.30;99.90
18189;DHT22;9219;50.396;8.546;2023-04-03T18:31:48;5.10;99.90
18189;DHT22;9219;50.396;8.546;2023-04-03T18:34:18;5.40;99.90
18189;DHT22;9219;50.396;8.546;2023-04-03T18:36:46;5.40;99.90
18189;DHT22;9219;50.396;8.546;2023-04-03T18:42:12;5.40;99.90
18189;DHT22;9219;50.396;8.546;2023-04-03T18:44:42;5.40;99.90
18189;DHT22;9219;50.396;8.546;2023-04-03T18:47:11;5.40;99.90
18189;DHT22;9219;50.396;8.546;2023-04-03T18:49:39;5.40;99.90
18189;DHT22;9219;50.396;8.546;2023-04-03T18:52:08;5.20;99.90
18189;DHT22;9219;50.396;8.546;2023-04-03T18:54:36;5.10;99.90
18189;DHT22;9219;50.396;8.546;2023-04-03T18:57:03;5.00;99.90
18189;DHT22;9219;50.396;8.546;2023-04-03T19:04:35;5.10;99.90
18189;DHT22;9219;50.396;8.546;2023-04-03T19:07:02;5.00;99.90
18189;DHT22;9219;50.396;8.546;2023-04-03T19:09:32;5.00;99.90
18189;DHT22;9219;50.396;8.546;2023-04-03T19:11:59;4.90;99.90
18189;DHT22;9219;50.396;8.546;2023-04-03T19:14:28;4.80;99.90
18189;DHT22;9219;50.396;8.546;2023-04-03T19:16:56;4.90;99.90
18189;DHT22;9219;50.396;8.546;2023-04-03T19:19:23;5.00;99.90
18189;DHT22;9219;50.396;8.546;2023-04-03T19:26:56;5.20;99.90
18189;DHT22;9219;50.396;8.546;2023-04-03T19:29:24;5.30;99.90
18189;DHT22;9219;50.396;8.546;2023-04-03T19:31:52;5.00;99.90
18189;DHT22;9219;50.396;8.546;2023-04-03T19:34:19;4.90;99.90
18189;DHT22;9219;50.396;8.546;2023-04-03T19:36:47;5.00;99.90
18189;DHT22;9219;50.396;8.546;2023-04-03T19:39:17;4.80;99.90
18189;DHT22;9219;50.396;8.546;2023-04-03T19:41:44;4.70;99.90
18189;DHT22;9219;50.396;8.546;2023-04-03T19:48:39;4.40;99.90
18189;DHT22;9219;50.396;8.546;2023-04-03T19:51:07;4.30;99.90
18189;DHT22;9219;50.396;8.546;2023-04-03T19:53:37;4.20;99.90
18189;DHT22;9219;50.396;8.546;2023-04-03T19:56:04;4.10;99.90
18189;DHT22;9219;50.396;8.546;2023-04-03T19:58:32;4.20;99.90
18189;DHT22;9219;50.396;8.546;2023-04-03T20:01:00;4.40;99.90
18189;DHT22;9219;50.396;8.546;2023-04-03T20:03:27;4.40;99.90
18189;DHT22;9219;50.396;8.546;2023-04-03T20:05:56;4.50;99.90
18189;DHT22;9219;50.396;8.546;2023-04-03T20:13:21;4.20;99.90
18189;DHT22;9219;50.396;8.546;2023-04-03T20:15:49;4.50;99.90
18189;DHT22;9219;50.396;8.546;2023-04-03T20:18:18;4.50;99.90
18189;DHT22;9219;50.396;8.546;2023-04-03T20:20:51;4.50;99.90
18189;DHT22;9219;50.396;8.546;2023-04-03T20:23:19;4.50;99.90
18189;DHT22;9219;50.396;8.546;2023-04-03T20:25:47;4.30;99.90
18189;DHT22;9219;50.396;8.546;2023-04-03T20:28:36;4.10;99.90
18189;DHT22;9219;50.396;8.546;2023-04-03T20:36:10;4.00;99.90
18189;DHT22;9219;50.396;8.546;2023-04-03T20:38:37;4.00;99.90